• Join FlightAware (Why Join?)
  • Login
  • US Flag 
08:27AM EDT


 

Airport Tracker/Info


-or-


 

Live Flight TrackerFlight Track Log ✈ WBR2634 ✈ 11-Jul-2013 ✈ KBRL - KORD

Flight Track Log - Related Links

Times and Time Zones

All times are in EDT time to prevent confusion due to time zone crossing. See the WBR2634 flight status page for this flight to view local times or setup timezone preferences in your user account.

Time Position Orientation Groundspeed Altitude Reporting Facility
EDT Latitude Longitude Course Direction KTS MPH feet Rate Location/Type
05:46PM 40.8336 -91.0906 73° East 113 130 2,700  Level Chicago Center
05:47PM 40.8408 -91.0439 78° East 107 123 3,600 720 Climbing Chicago Center
05:48PM 40.8470 -90.8121 72° East  Level FlightAware Approximate
05:48PM 40.8508 -91.0061 71° East 107 123 4,300  Level Chicago Center
05:49PM 40.8667 -90.7655 90° East  Level FlightAware Approximate
05:49PM 40.8575 -90.9686 77° East 106 122 5,000  Level Chicago Center
05:50PM 40.8758 -90.7136 72° East  Level FlightAware Approximate
05:50PM 40.8675 -90.9300 71° East 109 125 5,600  Level Chicago Center
05:51PM 40.8882 -90.6624 73° East  Level FlightAware Approximate
05:51PM 40.8769 -90.8906 72° East 112 129 6,400  Level Chicago Center
05:52PM 40.8828 -90.8511 79° East 109 125 7,100 660 Climbing Chicago Center
05:53PM 40.8947 -90.8036 72° East 113 130 7,800 540 Climbing Chicago Center
05:55PM 40.9198 -90.7399 72° East  Level Estimated
05:55PM 40.9139 -90.7203 72° East 121 139 8,900  Level Chicago Center
05:56PM 40.9236 -90.6753 74° East 128 147 9,100 60 Climbing Chicago Center
05:57PM 40.9353 -90.6261 73° East 138 159 9,100  Level Chicago Center
05:58PM 40.9453 -90.5753 75° East 142 163 9,100  Level Chicago Center
05:59PM 40.9592 -90.5156 73° East 142 163 9,100  Level Chicago Center
06:00PM 40.9731 -90.4664 69° East 141 162 9,100  Level Chicago Center
06:01PM 40.9839 -90.4153 74° East 144 166 9,100 -60 Level Chicago Center
06:02PM 40.9947 -90.3622 75° East 148 170 9,000  Descending Chicago Center
06:04PM 41.0067 -90.3125 72° East 144 166 9,100  Climbing Chicago Center
06:05PM 41.0169 -90.2600 75° East 146 168 9,100  Level Chicago Center
06:06PM 41.0286 -90.2081 73° East 147 169 9,100 -60 Level Chicago Center
06:07PM 41.0425 -90.1467 73° East 145 167 9,000  Descending Chicago Center
06:08PM 41.0542 -90.0950 73° East 146 168 9,100  Climbing Chicago Center
06:09PM 41.0639 -90.0428 76° East 146 168 9,100  Level Chicago Center
06:10PM 41.0756 -89.9922 73° East 145 167 9,100  Level Chicago Center
06:11PM 41.0853 -89.9408 76° East 144 166 9,100  Level Chicago Center
06:12PM 41.0956 -89.8897 75° East 143 165 9,100  Level Chicago Center
06:13PM 41.1094 -89.8281 73° East 144 166 9,100  Level Chicago Center
06:14PM 41.1208 -89.7775 73° East 144 166 9,100  Level Chicago Center
06:15PM 41.1319 -89.7272 74° East 142 163 9,100  Level Chicago Center
06:16PM 41.1417 -89.6758 76° East 143 165 9,100  Level Chicago Center
06:17PM 41.1542 -89.6258 72° East 142 163 9,100  Level Chicago Center
06:18PM 41.1656 -89.5753 73° East 143 165 9,100  Level Chicago Center
06:19PM 41.1886 -89.5317 55° Northeast 143 165 9,100  Level Chicago Center
06:20PM 41.2133 -89.4794 58° Northeast 140 161 9,100  Level Chicago Center
06:21PM 41.2342 -89.4333 59° Northeast 143 165 9,100  Level Chicago Center
06:22PM 41.2533 -89.3872 61° Northeast 143 165 9,100  Level Chicago Center
06:23PM 41.2725 -89.3406 61° Northeast 144 166 9,100  Level Chicago Center
06:24PM 41.2953 -89.2961 56° Northeast 145 167 9,100  Level Chicago Center
06:25PM 41.3158 -89.2517 58° Northeast 143 165 9,100  Level Chicago Center
06:26PM 41.3397 -89.1981 59° Northeast 141 162 9,100  Level Chicago Center
06:27PM 41.3567 -89.1589 60° Northeast 140 161 9,100  Level Chicago Center
06:28PM 41.3806 -89.1081 58° Northeast 137 158 9,100  Level Chicago Center
06:29PM 41.4008 -89.0647 58° Northeast 138 159 9,100  Level Chicago Center
06:30PM 41.4231 -89.0236 54° Northeast 139 160 9,100  Level Chicago Center
06:31PM 41.4433 -88.9792 59° Northeast 139 160 9,100 -60 Level Chicago Center
06:32PM 41.4631 -88.9339 60° Northeast 142 163 9,000 -360 Descending Chicago Center
06:34PM 41.4903 -88.8764 58° Northeast 154 177 8,400 -480 Descending Chicago Center
06:35PM 41.5125 -88.8269 59° Northeast 157 181 8,100 -180 Descending Chicago Center
06:36PM 41.5347 -88.7825 56° Northeast 146 168 8,100  Level Chicago Center
06:37PM 41.5556 -88.7392 57° Northeast 141 162 8,100  Level Chicago Center
06:38PM 41.5689 -88.6911 70° East 139 160 8,100  Level Chicago Center
06:39PM 41.5822 -88.6303 74° East 142 163 8,100  Level Chicago Center
06:40PM 41.5933 -88.5800 74° East 144 166 8,100  Level Chicago Center
06:41PM 41.6067 -88.5308 70° East 142 163 8,100  Level Chicago Center
06:42PM 41.6183 -88.4811 73° East 140 161 8,100  Level Chicago Center
06:43PM 41.6300 -88.4319 72° East 141 162 8,100  Level Chicago Center
06:44PM 41.6425 -88.3719 74° East 139 160 8,100  Level Chicago Center
06:45PM 41.6561 -88.3211 70° East 144 166 8,100  Level Chicago Center
06:46PM 41.6703 -88.2728 69° East 141 162 8,100 -300 Level Chicago Center
06:47PM 41.6850 -88.2183 70° East 153 176 7,600 -480 Descending Chicago Center
06:48PM 41.7156 -88.1747 47° Northeast 161 185 7,100 -600 Descending Chicago Center
06:49PM 41.7514 -88.1372 38° Northeast 163 188 6,400 -960 Descending Chicago Center
06:50PM 41.7903 -88.0914 41° Northeast 157 181 5,200 -1,020 Descending Chicago Center
06:51PM 41.8244 -88.0506 42° Northeast 159 183 4,300 -900 Descending Chicago Center
06:52PM 41.8606 -88.0094 40° Northeast 165 190 3,400 -960 Descending Chicago Center
06:53PM 41.8833 -87.9833 40° Northeast 167 192 2,700 -1,080 Descending Chicago TRACON
06:54PM 41.9167 -87.9333 48° Northeast 158 182 1,600 -1,140 Descending Chicago TRACON
06:57PM 41.9667 -87.9000 56° Northeast  Level FlightAware Approximate